createdAt,value
2018-10-02T00:02:26.336Z,90.96
2018-10-02T00:07:23.844Z,91.08
2018-10-02T00:13:24.425Z,91.86
2018-10-02T00:18:21.902Z,91.97
2018-10-02T00:23:19.422Z,92.23
2018-10-02T00:28:16.921Z,92.08
2018-10-02T00:33:14.422Z,92.65
2018-10-02T00:38:11.899Z,92.13
2018-10-02T00:43:09.384Z,91.31
2018-10-02T00:48:06.855Z,91.90
2018-10-02T00:53:04.321Z,92.20
2018-10-02T00:58:01.793Z,91.59
2018-10-02T01:02:59.288Z,91.91
2018-10-02T01:07:56.774Z,91.98
2018-10-02T01:12:54.301Z,89.68
2018-10-02T01:17:51.765Z,90.68
2018-10-02T01:22:49.226Z,91.49
2018-10-02T01:27:46.683Z,91.56
2018-10-02T01:32:44.153Z,91.66
2018-10-02T01:37:41.628Z,92.13
2018-10-02T01:42:39.093Z,92.63
2018-10-02T01:47:36.561Z,92.48
2018-10-02T01:52:34.125Z,91.43
2018-10-02T01:57:31.602Z,92.28
2018-10-02T02:02:29.068Z,92.43
2018-10-02T02:07:26.537Z,92.63
2018-10-02T02:12:24.012Z,91.93
2018-10-02T02:17:21.478Z,92.57
2018-10-02T02:22:18.975Z,92.18
2018-10-02T02:27:16.522Z,92.81
2018-10-02T02:32:14.001Z,92.78
2018-10-02T02:37:11.453Z,92.88
2018-10-02T02:42:08.939Z,92.64
2018-10-02T02:47:12.014Z,92.86
2018-10-02T02:52:09.836Z,93.34
2018-10-02T02:57:07.430Z,92.57
2018-10-02T03:02:04.864Z,92.43
2018-10-02T03:07:02.328Z,91.91
2018-10-02T03:11:59.794Z,92.37
2018-10-02T03:16:57.261Z,91.90
2018-10-02T03:21:54.798Z,92.22
2018-10-02T03:26:52.241Z,91.95
2018-10-02T03:31:49.707Z,91.99
2018-10-02T03:36:47.205Z,92.18
2018-10-02T03:41:44.821Z,91.36
2018-10-02T03:46:42.283Z,91.65
2018-10-02T03:51:39.753Z,92.19
2018-10-02T03:56:37.229Z,92.26
2018-10-02T04:01:34.748Z,92.48
2018-10-02T04:06:32.233Z,92.27
2018-10-02T04:11:29.722Z,91.18
2018-10-02T04:16:27.211Z,91.69
2018-10-02T04:21:31.301Z,92.45
2018-10-02T04:26:28.758Z,92.14
2018-10-02T04:31:33.309Z,91.82
2018-10-02T04:36:30.833Z,91.80
2018-10-02T04:41:28.329Z,92.13
2018-10-02T04:46:25.797Z,92.61
2018-10-02T04:51:23.349Z,92.90
2018-10-02T04:56:20.921Z,93.02
2018-10-02T05:01:18.331Z,93.10
2018-10-02T05:06:15.848Z,92.51
2018-10-02T05:11:13.376Z,93.36
2018-10-02T05:16:10.986Z,93.41
2018-10-02T05:21:08.546Z,93.66
2018-10-02T05:26:06.357Z,93.63
2018-10-02T05:31:03.905Z,93.24
2018-10-02T05:36:01.436Z,92.69
2018-10-02T05:40:58.971Z,91.72
2018-10-02T05:45:56.479Z,92.07
2018-10-02T05:50:53.961Z,90.86
2018-10-02T05:55:51.452Z,90.79
2018-10-02T06:00:49.737Z,90.62
2018-10-02T06:05:47.252Z,90.28
2018-10-02T06:10:44.865Z,90.90
2018-10-02T06:15:42.440Z,90.03
2018-10-02T06:20:40.214Z,90.49
2018-10-02T06:25:37.782Z,90.86
2018-10-02T06:30:35.317Z,90.82
2018-10-02T06:35:32.856Z,90.92
2018-10-02T06:40:30.433Z,90.73
2018-10-02T06:45:27.904Z,91.23
2018-10-02T06:50:25.421Z,90.66
2018-10-02T06:55:22.930Z,90.38
2018-10-02T07:00:20.460Z,90.72
2018-10-02T07:05:17.928Z,90.73
2018-10-02T07:10:15.420Z,90.69
2018-10-02T07:15:12.902Z,90.47
2018-10-02T07:20:10.460Z,90.71
2018-10-02T07:25:07.962Z,90.91
2018-10-02T07:30:05.530Z,90.86
2018-10-02T07:35:03.158Z,90.18
2018-10-02T07:40:00.720Z,90.06
2018-10-02T07:44:58.230Z,90.90
2018-10-02T07:49:56.782Z,89.92
2018-10-02T07:54:55.609Z,90.53
2018-10-02T07:59:53.156Z,90.82
2018-10-02T08:04:50.749Z,90.10
2018-10-02T08:09:48.203Z,90.62
2018-10-02T08:14:45.803Z,90.40
2018-10-02T08:19:43.278Z,90.70
2018-10-02T08:24:47.622Z,90.38
2018-10-02T08:29:45.159Z,91.05
2018-10-02T08:34:42.645Z,91.12
2018-10-02T08:39:40.148Z,91.16
2018-10-02T08:44:37.655Z,91.60
2018-10-02T08:49:35.175Z,91.04
2018-10-02T08:54:33.794Z,90.92
2018-10-02T08:59:31.397Z,90.53
2018-10-02T09:04:28.922Z,90.95
2018-10-02T09:09:26.420Z,90.72
2018-10-02T09:14:23.930Z,90.74
2018-10-02T09:19:21.441Z,90.49
2018-10-02T09:24:23.977Z,90.41
2018-10-02T09:29:21.486Z,90.45
2018-10-02T09:34:24.772Z,90.75
2018-10-02T09:39:28.093Z,90.58
2018-10-02T09:44:25.554Z,91.20
2018-10-02T09:49:23.032Z,91.66
2018-10-02T09:54:22.658Z,91.89
2018-10-02T09:59:20.253Z,91.93
2018-10-02T10:04:18.012Z,92.07
2018-10-02T10:09:15.525Z,92.40
2018-10-02T10:14:13.024Z,92.62
2018-10-02T10:19:10.579Z,93.16
2018-10-02T10:24:13.165Z,92.28
2018-10-02T10:29:10.685Z,92.67
2018-10-02T10:34:08.207Z,92.81
2018-10-02T10:39:07.312Z,93.01
2018-10-02T10:44:04.795Z,93.00
2018-10-02T10:49:02.331Z,92.88
2018-10-02T10:54:07.047Z,93.00
2018-10-02T10:59:08.495Z,92.75
2018-10-02T11:04:08.124Z,93.37
2018-10-02T11:09:11.552Z,92.26
2018-10-02T11:14:10.740Z,93.24
2018-10-02T11:19:10.661Z,92.86
2018-10-02T11:24:13.651Z,92.98
2018-10-02T11:29:11.237Z,93.31
2018-10-02T11:34:08.755Z,92.64
2018-10-02T11:39:06.387Z,92.44
2018-10-02T11:44:03.972Z,93.03
2018-10-02T11:49:04.141Z,92.89
2018-10-02T11:54:14.780Z,93.58
2018-10-02T11:59:14.081Z,92.93
2018-10-02T12:04:14.947Z,93.12
2018-10-02T12:09:17.661Z,93.07
2018-10-02T12:14:18.608Z,93.08
2018-10-02T12:19:18.596Z,93.06
2018-10-02T12:24:23.939Z,92.98
2018-10-02T12:29:23.646Z,93.05
2018-10-02T12:34:22.671Z,92.57
2018-10-02T12:39:21.689Z,92.92
2018-10-02T12:44:25.419Z,92.73
2018-10-02T12:49:26.251Z,93.47
2018-10-02T12:54:30.873Z,92.88
2018-10-02T12:59:28.435Z,93.63
2018-10-02T13:04:28.296Z,92.95
2018-10-02T13:09:25.873Z,92.86
2018-10-02T13:14:24.653Z,93.31
2018-10-02T13:19:28.623Z,93.25
2018-10-02T13:24:33.131Z,92.98
2018-10-02T13:29:38.647Z,93.44
2018-10-02T13:34:40.415Z,93.36
2018-10-02T13:39:39.822Z,93.52
2018-10-02T13:44:37.475Z,93.91
2018-10-02T13:49:34.973Z,93.81
2018-10-02T13:54:33.719Z,93.50
2018-10-02T13:59:31.223Z,93.57
2018-10-02T14:04:28.773Z,94.12
2018-10-02T14:09:26.335Z,94.04
2018-10-02T14:14:23.834Z,93.97
2018-10-02T14:19:21.367Z,94.10
2018-10-02T14:24:20.077Z,93.68
2018-10-02T14:29:17.596Z,93.82
2018-10-02T14:34:15.110Z,93.75
2018-10-02T14:39:12.646Z,93.81
2018-10-02T14:44:10.152Z,93.44
2018-10-02T14:49:07.653Z,93.28
2018-10-02T14:54:13.027Z,92.94
2018-10-02T14:59:10.761Z,93.76
2018-10-02T15:04:08.475Z,93.04
2018-10-02T15:09:07.137Z,93.74
2018-10-02T15:14:04.655Z,93.62
2018-10-02T15:19:02.245Z,93.41
2018-10-02T15:24:05.367Z,94.00
2018-10-02T15:29:03.769Z,93.33
2018-10-02T15:34:01.672Z,93.78
2018-10-02T15:38:59.193Z,93.16
2018-10-02T15:43:56.801Z,92.87
2018-10-02T15:48:54.360Z,93.53
2018-10-02T15:53:58.357Z,93.53
2018-10-02T15:58:55.917Z,93.09
2018-10-02T16:03:54.066Z,93.08
2018-10-02T16:08:55.089Z,92.92
2018-10-02T16:13:53.187Z,92.59
2018-10-02T16:18:50.952Z,92.85
2018-10-02T16:23:49.574Z,92.23
2018-10-02T16:28:47.122Z,92.42
2018-10-02T16:33:44.658Z,91.00
2018-10-02T16:38:42.210Z,89.18
2018-10-02T16:43:39.818Z,89.88
2018-10-02T16:48:37.363Z,90.84
2018-10-02T16:53:34.860Z,91.25
2018-10-02T16:58:32.364Z,91.20
2018-10-02T17:03:29.872Z,91.99
2018-10-02T17:08:27.369Z,91.77
2018-10-02T17:13:24.910Z,91.45
2018-10-02T17:18:22.491Z,91.51
2018-10-02T17:23:20.009Z,91.71
2018-10-02T17:28:17.625Z,91.60
2018-10-02T17:33:15.110Z,91.86
2018-10-02T17:38:12.596Z,91.46
2018-10-02T17:43:10.068Z,91.88
2018-10-02T17:48:07.525Z,90.89
2018-10-02T17:53:05.041Z,91.59
2018-10-02T17:58:02.503Z,91.64
2018-10-02T18:03:00.109Z,91.30
2018-10-02T18:07:57.557Z,90.23
2018-10-02T18:12:55.161Z,89.87
2018-10-02T18:17:52.740Z,89.66
2018-10-02T18:22:50.275Z,89.30
2018-10-02T18:27:47.882Z,89.78
2018-10-02T18:32:45.446Z,89.41
2018-10-02T18:37:43.014Z,89.75
2018-10-02T18:42:40.730Z,88.33
2018-10-02T18:47:38.269Z,87.88
2018-10-02T18:52:35.857Z,88.37
2018-10-02T18:57:33.473Z,87.57
2018-10-02T19:02:31.044Z,87.49
2018-10-02T19:07:28.588Z,85.83
2018-10-02T19:12:26.156Z,84.84
2018-10-02T19:17:23.722Z,83.34
2018-10-02T19:22:21.409Z,82.80
2018-10-02T19:27:19.004Z,83.36
2018-10-02T19:32:17.405Z,82.80
2018-10-02T19:37:20.393Z,82.92
2018-10-02T19:42:21.704Z,81.41
2018-10-02T19:47:21.056Z,80.37
2018-10-02T19:52:18.721Z,81.32
2018-10-02T19:57:17.481Z,81.92
2018-10-02T20:02:14.934Z,81.03
2018-10-02T20:07:12.427Z,81.60
2018-10-02T20:12:09.975Z,82.00
2018-10-02T20:17:07.526Z,81.43
2018-10-02T20:22:07.185Z,82.02
2018-10-02T20:27:04.702Z,81.66
2018-10-02T20:32:02.160Z,81.87
2018-10-02T20:36:59.688Z,81.93
2018-10-02T20:41:57.147Z,81.17
2018-10-02T20:46:54.638Z,81.16
2018-10-02T20:51:52.109Z,81.41
2018-10-02T20:56:49.586Z,81.14
2018-10-02T21:01:47.035Z,80.98
2018-10-02T21:06:44.509Z,80.62
2018-10-02T21:11:41.984Z,81.25
2018-10-02T21:16:42.750Z,80.68
2018-10-02T21:21:41.444Z,80.21
2018-10-02T21:26:40.859Z,81.01
2018-10-02T21:31:38.797Z,80.89
2018-10-02T21:36:36.247Z,80.12
2018-10-02T21:41:33.721Z,80.57
2018-10-02T21:46:31.174Z,79.74
2018-10-02T21:51:28.665Z,79.60
2018-10-02T21:56:26.148Z,80.45
2018-10-02T22:01:28.196Z,79.85
2018-10-02T22:06:25.657Z,80.14
2018-10-02T22:11:23.145Z,79.76
2018-10-02T22:16:20.617Z,79.49
2018-10-02T22:21:18.138Z,79.40
2018-10-02T22:26:15.680Z,80.50
2018-10-02T22:31:13.358Z,79.71
2018-10-02T22:36:10.822Z,80.15
2018-10-02T22:41:08.307Z,80.24
2018-10-02T22:46:06.546Z,80.83
2018-10-02T22:51:04.037Z,81.55
2018-10-02T22:56:01.521Z,81.22
2018-10-02T23:00:59.034Z,82.20
2018-10-02T23:05:56.545Z,81.74
2018-10-02T23:10:54.085Z,81.68
2018-10-02T23:15:51.537Z,81.79
2018-10-02T23:20:48.989Z,81.57
2018-10-02T23:25:46.469Z,81.89
2018-10-02T23:30:43.941Z,82.02
2018-10-02T23:35:41.470Z,82.02
2018-10-02T23:40:38.947Z,82.36
2018-10-02T23:45:36.418Z,82.87
2018-10-02T23:50:33.902Z,83.38
2018-10-02T23:55:31.385Z,82.53
